createdAt,value
2024-03-26T07:55:49.273Z,10.15
2024-03-26T07:56:41.475Z,10.46
2024-03-26T07:57:41.494Z,10.76
2024-03-26T07:58:41.434Z,11.10
2024-03-26T07:59:41.421Z,11.43
2024-03-26T08:01:41.426Z,11.84
2024-03-26T08:02:41.393Z,12.02
2024-03-26T08:03:41.393Z,12.13
2024-03-26T08:04:42.867Z,12.25
2024-03-26T08:06:41.356Z,12.50
2024-03-26T08:07:41.334Z,12.57
2024-03-26T08:08:44.325Z,12.68
2024-03-26T08:09:41.321Z,12.62
2024-03-26T08:11:41.333Z,12.45
2024-03-26T08:12:41.369Z,12.54
2024-03-26T08:13:41.309Z,12.76
2024-03-26T08:14:41.278Z,12.91
2024-03-26T08:15:41.354Z,12.94
2024-03-26T08:16:41.250Z,13.08
2024-03-26T08:17:41.227Z,13.23
2024-03-26T08:18:41.220Z,13.38
2024-03-26T08:19:41.240Z,13.42
2024-03-26T08:21:41.177Z,13.49
2024-03-26T08:22:41.222Z,13.60
2024-03-26T08:23:44.169Z,13.71
2024-03-26T08:24:41.170Z,13.87
2024-03-26T08:25:41.154Z,14.03
2024-03-26T08:26:41.170Z,14.08
2024-03-26T08:27:41.160Z,14.15
2024-03-26T08:29:41.106Z,14.43
2024-03-26T08:30:41.091Z,14.66
2024-03-26T08:31:41.081Z,14.85
2024-03-26T08:32:41.113Z,14.99
2024-03-26T08:33:41.098Z,15.02
2024-03-26T08:34:41.046Z,15.00
2024-03-26T08:35:41.098Z,15.00
2024-03-26T08:36:41.036Z,15.02
2024-03-26T08:37:41.035Z,14.89
2024-03-26T08:38:44.068Z,14.70
2024-03-26T08:39:41.012Z,14.55
2024-03-26T08:40:41.004Z,14.54
2024-03-26T08:41:41.005Z,14.63
2024-03-26T08:42:40.983Z,14.70
2024-03-26T08:43:40.974Z,14.70
2024-03-26T08:44:40.944Z,14.81
2024-03-26T08:45:40.943Z,14.91
2024-03-26T08:46:40.932Z,14.91
2024-03-26T08:47:40.915Z,14.97
2024-03-26T08:48:40.911Z,14.99
2024-03-26T08:49:40.916Z,15.09
2024-03-26T08:50:40.894Z,15.28
2024-03-26T08:51:40.865Z,15.29
2024-03-26T08:52:40.863Z,15.17
2024-03-26T08:53:43.850Z,15.09
2024-03-26T08:54:40.849Z,15.15
2024-03-26T08:55:40.845Z,15.21
2024-03-26T08:56:40.815Z,15.24
2024-03-26T08:57:40.821Z,15.22
2024-03-26T08:59:40.803Z,15.04
2024-03-26T09:00:40.776Z,15.06
2024-03-26T09:02:40.770Z,15.15
2024-03-26T09:03:40.749Z,15.10
2024-03-26T09:04:40.731Z,15.07
2024-03-26T09:05:48.338Z,15.02
2024-03-26T09:06:40.724Z,14.94
2024-03-26T09:07:40.711Z,14.99
2024-03-26T09:08:43.706Z,14.84
2024-03-26T09:09:40.719Z,14.77
2024-03-26T09:10:40.743Z,14.69
2024-03-26T09:11:40.664Z,14.77
2024-03-26T09:12:40.683Z,14.85
2024-03-26T09:13:40.645Z,15.02
2024-03-26T09:14:40.682Z,15.15
2024-03-26T09:15:40.640Z,15.24
2024-03-26T09:17:40.606Z,15.35
2024-03-26T09:19:40.581Z,15.28
2024-03-26T09:20:40.564Z,15.22
2024-03-26T09:21:40.550Z,15.24
2024-03-26T09:22:40.571Z,15.31
2024-03-26T09:23:43.578Z,15.33
2024-03-26T09:24:49.436Z,15.35
2024-03-26T09:25:40.524Z,15.40
2024-03-26T09:26:40.511Z,15.47
2024-03-26T09:27:40.504Z,15.29
2024-03-26T09:29:40.486Z,15.18
2024-03-26T09:30:40.475Z,15.28
2024-03-26T09:31:40.460Z,15.28
2024-03-26T09:32:40.616Z,15.24
2024-03-26T09:33:40.423Z,15.09
2024-03-26T09:34:40.426Z,14.92
2024-03-26T09:35:40.423Z,14.91
2024-03-26T09:36:41.278Z,14.89
2024-03-26T09:37:40.405Z,14.85
2024-03-26T09:38:48.195Z,14.89
2024-03-26T09:39:40.365Z,14.86
2024-03-26T09:40:40.352Z,14.82
2024-03-26T09:41:40.351Z,14.82
2024-03-26T09:42:40.353Z,14.81
2024-03-26T09:43:40.347Z,14.85
2024-03-26T09:44:40.324Z,14.85
2024-03-26T09:45:41.307Z,14.73
2024-03-26T09:46:40.306Z,14.69
2024-03-26T09:47:40.288Z,14.50
2024-03-26T09:48:40.270Z,14.37
2024-03-26T09:50:40.252Z,14.12
2024-03-26T09:52:40.229Z,13.92
2024-03-26T09:53:43.223Z,13.90
2024-03-26T09:55:40.216Z,13.83
2024-03-26T09:56:40.176Z,13.83
2024-03-26T09:58:40.157Z,13.77
2024-03-26T09:59:40.170Z,13.83
2024-03-26T10:00:41.615Z,13.75
2024-03-26T10:02:40.119Z,13.65
2024-03-26T10:03:40.109Z,13.60
2024-03-26T10:05:40.109Z,13.52
2024-03-26T10:06:40.079Z,13.52
2024-03-26T10:08:43.163Z,13.50
2024-03-26T10:09:40.044Z,13.49
2024-03-26T10:10:47.543Z,13.44
2024-03-26T10:11:42.735Z,13.41
2024-03-26T10:12:40.017Z,13.39
2024-03-26T10:13:40.024Z,13.38
2024-03-26T10:15:39.983Z,13.33
2024-03-26T10:16:40.143Z,13.31
2024-03-26T10:17:39.999Z,13.25
2024-03-26T10:18:39.972Z,13.25
2024-03-26T10:20:39.933Z,13.20
2024-03-26T10:21:39.916Z,13.16
2024-03-26T10:22:39.916Z,13.15
2024-03-26T10:23:42.897Z,13.13
2024-03-26T10:24:39.888Z,13.13
2024-03-26T10:25:39.874Z,13.13
2024-03-26T10:26:39.863Z,13.16
2024-03-26T10:27:39.869Z,13.12
2024-03-26T10:28:39.851Z,13.04
2024-03-26T10:29:39.830Z,13.03
2024-03-26T10:31:39.828Z,13.00
2024-03-26T10:32:39.799Z,13.00
2024-03-26T10:33:39.794Z,12.95
2024-03-26T10:34:39.770Z,12.93
2024-03-26T10:35:39.766Z,12.95
2024-03-26T10:36:39.760Z,13.00
2024-03-26T10:37:39.744Z,12.98
2024-03-26T10:38:47.938Z,13.04
2024-03-26T10:40:39.726Z,13.12
2024-03-26T10:41:39.709Z,13.18
2024-03-26T10:42:39.863Z,13.16
2024-03-26T10:43:39.683Z,13.15
2024-03-26T10:44:39.669Z,13.12
2024-03-26T10:45:49.355Z,13.11
2024-03-26T10:46:40.653Z,13.13
2024-03-26T10:47:39.712Z,13.08
2024-03-26T10:48:44.415Z,13.03
2024-03-26T10:49:40.617Z,13.03
2024-03-26T10:50:39.611Z,13.03
2024-03-26T10:51:39.618Z,13.00
2024-03-26T10:52:39.580Z,13.03
2024-03-26T10:53:42.742Z,13.03
2024-03-26T10:54:39.568Z,13.04
2024-03-26T10:56:39.542Z,12.98
2024-03-26T10:57:39.531Z,13.01
2024-03-26T10:58:39.524Z,13.04
2024-03-26T10:59:39.522Z,13.05
2024-03-26T11:01:39.492Z,13.13
2024-03-26T11:02:39.516Z,13.20
2024-03-26T11:03:39.507Z,13.20
2024-03-26T11:04:39.489Z,13.22
2024-03-26T11:06:39.465Z,13.47
2024-03-26T11:07:39.436Z,13.60
2024-03-26T11:08:42.413Z,13.74
2024-03-26T11:09:39.412Z,13.86
2024-03-26T11:11:39.392Z,14.08
2024-03-26T11:12:39.373Z,14.26
2024-03-26T11:14:39.370Z,14.77
2024-03-26T11:15:39.516Z,14.96
2024-03-26T11:16:39.338Z,15.10
2024-03-26T11:17:39.346Z,15.27
2024-03-26T11:19:39.298Z,15.65
2024-03-26T11:20:39.301Z,15.82
2024-03-26T11:21:39.277Z,15.98
2024-03-26T11:22:39.272Z,16.12
2024-03-26T11:23:42.252Z,16.17
2024-03-26T11:24:39.250Z,16.24
2024-03-26T11:25:39.245Z,16.36
2024-03-26T11:26:39.243Z,16.51
2024-03-26T11:27:39.213Z,16.64
2024-03-26T11:28:39.219Z,16.54
2024-03-26T11:29:39.196Z,16.54
2024-03-26T11:30:39.184Z,16.49
2024-03-26T11:31:39.185Z,16.38
2024-03-26T11:32:39.158Z,16.42
2024-03-26T11:33:39.170Z,16.39
2024-03-26T11:34:39.155Z,16.35
2024-03-26T11:35:39.133Z,16.29
2024-03-26T11:36:39.128Z,16.13
2024-03-26T11:37:39.122Z,16.17
2024-03-26T11:38:42.104Z,16.21
2024-03-26T11:39:39.095Z,16.31
2024-03-26T11:40:39.080Z,16.29
2024-03-26T11:41:39.076Z,16.26
2024-03-26T11:42:39.074Z,16.36
2024-03-26T11:43:39.051Z,16.33
2024-03-26T11:44:39.035Z,16.32
2024-03-26T11:45:39.029Z,16.36
2024-03-26T11:47:39.009Z,16.53
2024-03-26T11:48:39.168Z,16.64
2024-03-26T11:49:38.995Z,16.78
2024-03-26T11:50:38.971Z,16.87
2024-03-26T11:52:38.950Z,16.93
2024-03-26T11:53:42.130Z,16.89
2024-03-26T11:55:38.924Z,16.96
2024-03-26T11:56:38.920Z,17.05
2024-03-26T11:57:41.361Z,17.12
2024-03-26T11:58:38.888Z,17.16
2024-03-26T11:59:38.870Z,17.19
2024-03-26T12:00:38.975Z,17.22
2024-03-26T12:02:38.843Z,17.30
2024-03-26T12:03:38.840Z,17.41
2024-03-26T12:04:38.868Z,17.44
2024-03-26T12:05:38.808Z,17.57
2024-03-26T12:06:38.794Z,17.71
2024-03-26T12:07:38.801Z,17.80
2024-03-26T12:08:41.787Z,17.71
2024-03-26T12:10:38.758Z,17.71
2024-03-26T12:11:38.759Z,17.74
2024-03-26T12:12:38.733Z,17.85
2024-03-26T12:13:38.736Z,17.94
2024-03-26T12:14:38.712Z,17.95
2024-03-26T12:15:38.717Z,17.95
2024-03-26T12:17:38.681Z,18.08
2024-03-26T12:18:38.688Z,18.11
2024-03-26T12:19:38.669Z,18.13
2024-03-26T12:20:38.685Z,18.15
2024-03-26T12:21:38.641Z,18.05
2024-03-26T12:22:38.629Z,18.01
2024-03-26T12:25:38.604Z,18.01
2024-03-26T12:26:38.607Z,18.20
2024-03-26T12:27:38.576Z,18.35
2024-03-26T12:28:38.568Z,18.49
2024-03-26T12:29:38.557Z,18.62
2024-03-26T12:30:38.548Z,18.63
2024-03-26T12:32:38.522Z,18.68
2024-03-26T12:33:38.515Z,18.78
2024-03-26T12:35:38.510Z,18.89
2024-03-26T12:36:38.477Z,18.89
2024-03-26T12:37:38.491Z,18.84
2024-03-26T12:38:41.453Z,18.78
2024-03-26T12:39:38.456Z,18.83
2024-03-26T12:40:38.436Z,18.92
2024-03-26T12:42:38.414Z,18.88
2024-03-26T12:43:38.417Z,18.86
2024-03-26T12:44:38.399Z,18.88
2024-03-26T12:45:38.385Z,18.99
2024-03-26T12:46:38.374Z,19.16
2024-03-26T12:47:38.362Z,19.29
2024-03-26T12:48:38.454Z,19.47
2024-03-26T12:50:38.336Z,19.62
2024-03-26T12:51:38.316Z,19.52
2024-03-26T12:52:38.320Z,19.55
2024-03-26T12:53:41.491Z,19.59
2024-03-26T12:54:38.296Z,19.67
2024-03-26T12:55:38.291Z,19.67
2024-03-26T12:56:38.272Z,19.47
2024-03-26T12:58:38.251Z,19.29
2024-03-26T12:59:38.242Z,18.93
2024-03-26T13:00:38.232Z,18.80
2024-03-26T13:01:38.233Z,18.83
2024-03-26T13:02:38.205Z,18.90
2024-03-26T13:03:38.256Z,18.81
2024-03-26T13:04:38.200Z,18.75
2024-03-26T13:05:38.182Z,18.95
2024-03-26T13:06:38.166Z,18.98
2024-03-26T13:07:38.150Z,19.08
2024-03-26T13:08:41.147Z,19.04
2024-03-26T13:09:38.141Z,19.12
2024-03-26T13:10:38.119Z,19.24
2024-03-26T13:11:38.294Z,19.34
2024-03-26T13:13:38.088Z,19.55
2024-03-26T13:14:38.106Z,19.56
2024-03-26T13:15:38.117Z,19.63
2024-03-26T13:16:38.058Z,19.62
2024-03-26T13:17:38.056Z,19.76
2024-03-26T13:18:38.122Z,19.85
2024-03-26T13:19:38.027Z,19.91
2024-03-26T13:21:38.002Z,20.02
2024-03-26T13:22:38.955Z,19.88
2024-03-26T13:23:40.986Z,19.77
2024-03-26T13:24:39.657Z,19.79
2024-03-26T13:25:39.341Z,19.88
2024-03-26T13:26:37.954Z,19.95
2024-03-26T13:27:37.958Z,19.91
2024-03-26T13:28:37.927Z,19.82
2024-03-26T13:29:37.941Z,19.84
2024-03-26T13:31:37.904Z,19.82
2024-03-26T13:33:37.887Z,20.09
2024-03-26T13:34:37.887Z,19.94
2024-03-26T13:35:37.871Z,19.71
2024-03-26T13:36:37.853Z,19.67
2024-03-26T13:37:37.854Z,19.79
2024-03-26T13:38:43.104Z,19.94
2024-03-26T13:39:37.831Z,19.95
2024-03-26T13:41:38.804Z,19.86
2024-03-26T13:43:37.792Z,19.99
2024-03-26T13:44:37.760Z,20.03
2024-03-26T13:45:37.760Z,20.11
2024-03-26T13:46:37.763Z,20.18
2024-03-26T13:47:37.731Z,20.26
2024-03-26T13:48:37.717Z,20.21
2024-03-26T13:49:37.719Z,20.16
2024-03-26T13:51:37.703Z,20.04
2024-03-26T13:53:40.694Z,20.16
2024-03-26T13:54:37.732Z,20.13
2024-03-26T13:55:37.674Z,20.16
2024-03-26T13:56:40.143Z,20.26
2024-03-26T13:57:37.617Z,20.28
2024-03-26T13:58:37.613Z,20.26
2024-03-26T13:59:37.593Z,20.28
2024-03-26T14:00:37.778Z,20.34
2024-03-26T14:01:37.578Z,20.44
2024-03-26T14:02:37.564Z,20.31
2024-03-26T14:03:37.566Z,20.16
2024-03-26T14:04:37.545Z,20.21
2024-03-26T14:05:38.499Z,20.29
2024-03-26T14:06:37.519Z,20.19
2024-03-26T14:07:37.509Z,20.09
2024-03-26T14:08:40.513Z,20.09
2024-03-26T14:09:37.498Z,19.99
2024-03-26T14:11:38.076Z,19.79
2024-03-26T14:12:38.409Z,19.81
2024-03-26T14:14:37.428Z,19.79
2024-03-26T14:15:37.432Z,19.73
2024-03-26T14:16:37.412Z,19.56
2024-03-26T14:17:37.400Z,19.49
2024-03-26T14:19:37.395Z,19.47
2024-03-26T14:20:37.380Z,19.56
2024-03-26T14:21:37.356Z,19.54
2024-03-26T14:22:37.364Z,19.52
2024-03-26T14:23:40.337Z,19.63
2024-03-26T14:24:37.330Z,19.69
2024-03-26T14:25:37.315Z,19.74
2024-03-26T14:26:37.305Z,19.86
2024-03-26T14:27:37.302Z,19.96
2024-03-26T14:28:37.282Z,20.04
2024-03-26T14:29:37.285Z,20.14
2024-03-26T14:30:37.284Z,20.11
2024-03-26T14:31:37.260Z,20.06
2024-03-26T14:32:37.248Z,20.04
2024-03-26T14:33:37.249Z,20.10
2024-03-26T14:34:37.252Z,20.10
2024-03-26T14:35:37.218Z,20.00
2024-03-26T14:36:37.193Z,20.06
2024-03-26T14:37:37.225Z,20.18
2024-03-26T14:40:37.159Z,20.18
2024-03-26T14:42:37.140Z,20.36
2024-03-26T14:43:37.138Z,20.50
2024-03-26T14:44:37.111Z,20.50
2024-03-26T14:45:37.099Z,20.41
2024-03-26T14:46:37.122Z,20.37
2024-03-26T14:47:37.086Z,20.29
2024-03-26T14:48:37.064Z,20.26
2024-03-26T14:49:37.099Z,20.26
2024-03-26T14:50:37.056Z,20.37
2024-03-26T14:51:37.986Z,20.28
2024-03-26T14:52:37.032Z,20.16
2024-03-26T14:53:40.077Z,20.10
2024-03-26T14:54:37.035Z,20.03
2024-03-26T14:55:37.643Z,20.07
2024-03-26T14:56:36.997Z,19.96
2024-03-26T14:57:36.999Z,20.00
2024-03-26T14:58:36.962Z,20.06
2024-03-26T14:59:36.969Z,20.04
2024-03-26T15:00:36.978Z,20.19
2024-03-26T15:02:36.923Z,20.44
2024-03-26T15:03:37.889Z,20.32
2024-03-26T15:05:36.903Z,20.24
2024-03-26T15:06:36.893Z,20.14
2024-03-26T15:07:36.893Z,20.03
2024-03-26T15:08:39.859Z,19.84
2024-03-26T15:09:36.860Z,19.74
2024-03-26T15:10:36.828Z,19.70
2024-03-26T15:11:37.024Z,19.69
2024-03-26T15:12:36.825Z,19.74
2024-03-26T15:13:36.804Z,19.86
2024-03-26T15:15:36.824Z,20.03
2024-03-26T15:16:36.774Z,19.92
2024-03-26T15:17:36.771Z,19.91
2024-03-26T15:18:36.756Z,19.89
2024-03-26T15:19:36.836Z,19.91
2024-03-26T15:20:36.760Z,19.96
2024-03-26T15:21:36.729Z,20.02
2024-03-26T15:22:36.761Z,20.00
2024-03-26T15:23:40.659Z,20.04
2024-03-26T15:24:36.715Z,20.13
2024-03-26T15:25:36.670Z,20.24
2024-03-26T15:26:36.666Z,20.18
2024-03-26T15:27:36.657Z,20.06
2024-03-26T15:28:36.990Z,20.04
2024-03-26T15:29:36.648Z,20.06
2024-03-26T15:30:36.640Z,20.09
2024-03-26T15:31:36.652Z,20.18
2024-03-26T15:32:50.657Z,20.22
2024-03-26T15:33:36.594Z,20.34
2024-03-26T15:34:37.544Z,20.39
2024-03-26T15:35:36.573Z,20.40
2024-03-26T15:36:36.557Z,20.29
2024-03-26T15:37:36.551Z,20.21
2024-03-26T15:38:39.567Z,20.24
2024-03-26T15:39:36.544Z,20.14
2024-03-26T15:40:36.522Z,20.14
2024-03-26T15:41:36.504Z,20.03
2024-03-26T15:42:36.498Z,20.04
2024-03-26T15:43:36.477Z,20.04
2024-03-26T15:44:36.483Z,19.94
2024-03-26T15:45:36.460Z,19.95
2024-03-26T15:46:44.629Z,19.95
2024-03-26T15:47:37.441Z,20.00
2024-03-26T15:48:36.434Z,19.91
2024-03-26T15:49:36.450Z,19.81
2024-03-26T15:50:36.412Z,19.73
2024-03-26T15:52:37.310Z,19.76
2024-03-26T15:53:39.447Z,19.55
2024-03-26T15:54:36.370Z,19.44
2024-03-26T15:55:36.362Z,19.29
2024-03-26T15:56:36.350Z,19.24
2024-03-26T15:57:36.341Z,19.29
2024-03-26T15:58:36.351Z,19.29
2024-03-26T15:59:36.335Z,19.31
2024-03-26T16:00:36.348Z,19.40
2024-03-26T16:01:36.290Z,19.48
2024-03-26T16:02:36.280Z,19.47
2024-03-26T16:03:36.301Z,19.33
2024-03-26T16:04:36.268Z,19.22
2024-03-26T16:05:36.247Z,19.21
2024-03-26T16:06:36.239Z,19.18
2024-03-26T16:07:36.239Z,19.16
2024-03-26T16:08:39.230Z,19.16
2024-03-26T16:10:52.992Z,19.14
2024-03-26T16:11:37.186Z,19.12
2024-03-26T16:13:36.161Z,19.14
2024-03-26T16:14:36.152Z,19.15
2024-03-26T16:16:36.124Z,19.19
2024-03-26T16:17:36.116Z,19.19
2024-03-26T16:18:36.106Z,19.26
2024-03-26T16:19:36.364Z,19.33
2024-03-26T16:20:36.095Z,19.34
2024-03-26T16:21:36.081Z,19.31
2024-03-26T16:22:36.060Z,19.30
2024-03-26T16:23:39.048Z,19.36
2024-03-26T16:24:36.054Z,19.59
2024-03-26T16:26:36.022Z,21.11
2024-03-26T16:28:36.003Z,22.30
2024-03-26T16:29:36.004Z,21.95
2024-03-26T16:30:36.001Z,21.37
2024-03-26T16:31:35.980Z,20.82
2024-03-26T16:32:35.976Z,20.40
2024-03-26T16:33:35.936Z,20.04
2024-03-26T16:34:35.948Z,19.85
2024-03-26T16:36:35.920Z,19.63
2024-03-26T16:37:35.899Z,19.47
2024-03-26T16:38:38.883Z,19.31
2024-03-26T16:39:35.903Z,19.18
2024-03-26T16:41:39.322Z,18.99
2024-03-26T16:42:35.849Z,18.93
2024-03-26T16:43:36.428Z,18.90
2024-03-26T16:44:36.851Z,18.89
2024-03-26T16:45:35.813Z,18.75
2024-03-26T16:46:36.980Z,18.60
2024-03-26T16:48:35.784Z,18.41
2024-03-26T16:49:35.774Z,18.28
2024-03-26T16:51:35.757Z,18.05
2024-03-26T16:52:35.906Z,18.01
2024-03-26T16:53:38.774Z,17.94
2024-03-26T16:54:35.722Z,17.85
2024-03-26T16:56:35.695Z,17.72
2024-03-26T16:57:35.692Z,17.64
2024-03-26T16:58:35.686Z,17.63
2024-03-26T16:59:35.675Z,17.54
2024-03-26T17:01:35.652Z,17.44
2024-03-26T17:02:35.637Z,17.38
2024-03-26T17:03:35.652Z,17.30
2024-03-26T17:04:35.612Z,17.19
2024-03-26T17:05:35.624Z,17.06
2024-03-26T17:06:35.604Z,16.96
2024-03-26T17:07:35.578Z,16.86
2024-03-26T17:08:38.601Z,16.74
2024-03-26T17:09:35.569Z,16.69
2024-03-26T17:11:38.290Z,16.61
2024-03-26T17:13:35.518Z,16.49
2024-03-26T17:14:35.506Z,16.39
2024-03-26T17:16:54.968Z,16.23
2024-03-26T17:17:36.489Z,16.09
2024-03-26T17:18:35.475Z,16.00
2024-03-26T17:19:37.365Z,15.91
2024-03-26T17:20:35.447Z,15.84
2024-03-26T17:21:35.431Z,15.76
2024-03-26T17:22:35.430Z,15.64
2024-03-26T17:23:38.402Z,15.46
2024-03-26T17:24:35.403Z,15.36
2024-03-26T17:26:35.394Z,15.21
2024-03-26T17:28:35.353Z,14.97
2024-03-26T17:29:35.343Z,14.91
2024-03-26T17:30:35.370Z,14.86
2024-03-26T17:31:35.325Z,14.81
2024-03-26T17:32:35.320Z,14.73
2024-03-26T17:33:35.306Z,14.69
2024-03-26T17:34:35.289Z,14.69
2024-03-26T17:35:35.289Z,14.66
2024-03-26T17:36:35.282Z,14.58
2024-03-26T17:37:35.264Z,14.51
2024-03-26T17:38:38.248Z,14.36
2024-03-26T17:39:35.261Z,14.20
2024-03-26T17:41:35.223Z,13.93
2024-03-26T17:42:35.215Z,13.87
2024-03-26T17:44:35.227Z,13.71
2024-03-26T17:45:35.219Z,13.63
2024-03-26T17:46:35.213Z,13.57
2024-03-26T17:47:35.155Z,13.57
2024-03-26T17:49:35.140Z,13.42
2024-03-26T17:51:35.122Z,13.28
2024-03-26T17:52:35.099Z,13.19
2024-03-26T17:53:38.098Z,13.08
2024-03-26T17:54:35.080Z,12.97
2024-03-26T17:55:35.066Z,12.87
2024-03-26T17:57:35.242Z,12.65
2024-03-26T17:58:35.036Z,12.58
2024-03-26T17:59:35.030Z,12.58
2024-03-26T18:00:35.031Z,12.50
2024-03-26T18:02:35.009Z,12.46
2024-03-26T18:04:34.986Z,12.50
2024-03-26T18:05:34.969Z,12.54
2024-03-26T18:06:34.951Z,12.53
2024-03-26T18:07:34.946Z,12.47
2024-03-26T18:08:37.961Z,12.45
2024-03-26T18:09:34.924Z,12.36
2024-03-26T18:10:34.926Z,12.31
2024-03-26T18:12:34.887Z,12.27
2024-03-26T18:13:34.889Z,12.22
2024-03-26T18:14:34.923Z,12.20
2024-03-26T18:15:34.865Z,12.17
2024-03-26T18:16:34.845Z,12.12
2024-03-26T18:17:34.905Z,12.03
2024-03-26T18:18:34.899Z,11.97
2024-03-26T18:19:34.946Z,11.86
2024-03-26T18:20:34.854Z,11.81
2024-03-26T18:21:34.854Z,11.78
2024-03-26T18:22:34.848Z,11.75
2024-03-26T18:23:37.821Z,11.73
2024-03-26T18:24:34.817Z,11.77
2024-03-26T18:25:34.809Z,11.73
2024-03-26T18:26:34.795Z,11.81
2024-03-26T18:27:34.780Z,11.83
2024-03-26T18:28:34.790Z,11.86
2024-03-26T18:29:34.753Z,11.83
2024-03-26T18:30:34.767Z,11.80
2024-03-26T18:31:34.746Z,11.80
2024-03-26T18:32:34.741Z,11.81
2024-03-26T18:33:34.719Z,11.78
2024-03-26T18:34:34.705Z,11.77
2024-03-26T18:35:34.736Z,11.75
2024-03-26T18:36:34.690Z,11.69
2024-03-26T18:37:34.679Z,11.68
2024-03-26T18:38:37.662Z,11.65
2024-03-26T18:39:34.663Z,11.68
2024-03-26T18:40:34.647Z,11.63
2024-03-26T18:42:34.661Z,11.65
2024-03-26T18:43:34.634Z,11.65
2024-03-26T18:45:34.600Z,11.63
2024-03-26T18:46:34.583Z,11.65
2024-03-26T18:47:34.612Z,11.66
2024-03-26T18:48:34.759Z,11.59
2024-03-26T18:49:34.551Z,11.55
2024-03-26T18:50:34.536Z,11.55
2024-03-26T18:51:34.528Z,11.54
2024-03-26T18:52:34.518Z,11.50
2024-03-26T18:53:37.770Z,11.50
2024-03-26T18:55:34.493Z,11.45
2024-03-26T18:56:34.472Z,11.45
2024-03-26T18:57:34.470Z,11.47
2024-03-26T18:58:34.457Z,11.41
2024-03-26T18:59:34.440Z,11.43
2024-03-26T19:00:34.440Z,11.43
2024-03-26T19:01:34.421Z,11.41
2024-03-26T19:02:34.416Z,11.40
2024-03-26T19:03:34.410Z,11.37
2024-03-26T19:04:34.431Z,11.35
2024-03-26T19:05:34.379Z,11.33
2024-03-26T19:06:34.371Z,11.29
2024-03-26T19:07:34.379Z,11.26
2024-03-26T19:08:37.348Z,11.23
2024-03-26T19:09:34.339Z,11.23
2024-03-26T19:10:34.329Z,11.22
2024-03-26T19:11:34.321Z,11.18
2024-03-26T19:12:34.303Z,11.18
2024-03-26T19:13:34.302Z,11.17
2024-03-26T19:14:34.278Z,11.14
2024-03-26T19:15:34.435Z,11.10
2024-03-26T19:16:34.269Z,11.08
2024-03-26T19:17:34.253Z,11.08
2024-03-26T19:18:34.246Z,11.07
2024-03-26T19:19:34.232Z,11.10
2024-03-26T19:20:34.214Z,11.08
2024-03-26T19:21:34.208Z,11.04
2024-03-26T19:23:37.199Z,10.89
2024-03-26T19:24:34.180Z,10.87
2024-03-26T19:25:34.171Z,10.89
2024-03-26T19:26:34.195Z,10.87
2024-03-26T19:27:34.152Z,10.87
2024-03-26T19:28:34.139Z,10.87
2024-03-26T19:29:34.119Z,10.87
2024-03-26T19:30:34.134Z,10.87
2024-03-26T19:31:34.102Z,10.87
2024-03-26T19:32:34.092Z,10.90
2024-03-26T19:33:34.098Z,10.90
2024-03-26T19:34:34.080Z,10.86
2024-03-26T19:35:34.060Z,10.84
2024-03-26T19:36:34.055Z,10.82
2024-03-26T19:37:34.212Z,10.82
2024-03-26T19:38:37.032Z,10.82
2024-03-26T19:39:34.022Z,10.84
2024-03-26T19:40:34.007Z,10.86
2024-03-26T19:41:34.002Z,10.86
2024-03-26T19:42:33.992Z,10.84
2024-03-26T19:43:33.975Z,10.82
2024-03-26T19:44:33.963Z,10.84
2024-03-26T19:45:33.966Z,10.84
2024-03-26T19:46:33.948Z,10.81
2024-03-26T19:47:33.944Z,10.82
2024-03-26T19:48:33.960Z,10.81
2024-03-26T19:49:33.916Z,10.82
2024-03-26T19:50:33.902Z,10.82
2024-03-26T19:51:33.889Z,10.79
2024-03-26T19:52:33.906Z,10.78
2024-03-26T19:53:36.983Z,10.74
2024-03-26T19:54:33.876Z,10.72
2024-03-26T19:55:33.861Z,10.71
2024-03-26T19:56:33.836Z,10.69
2024-03-26T19:57:33.839Z,10.69
2024-03-26T19:58:33.818Z,10.64
2024-03-26T19:59:33.821Z,10.60
2024-03-26T20:01:33.801Z,10.54
2024-03-26T20:02:33.775Z,10.56
2024-03-26T20:03:33.763Z,10.56
2024-03-26T20:04:33.781Z,10.54
2024-03-26T20:05:33.746Z,10.54
2024-03-26T20:06:33.739Z,10.56
2024-03-26T20:07:33.730Z,10.54
2024-03-26T20:08:36.721Z,10.53
2024-03-26T20:09:33.700Z,10.56
2024-03-26T20:10:33.690Z,10.56
2024-03-26T20:11:33.680Z,10.56
2024-03-26T20:12:33.853Z,10.49
2024-03-26T20:13:33.652Z,10.49
2024-03-26T20:14:33.652Z,10.48
2024-03-26T20:15:33.637Z,10.49
2024-03-26T20:16:33.622Z,10.49
2024-03-26T20:17:33.638Z,10.51
2024-03-26T20:18:33.610Z,10.54
2024-03-26T20:19:33.605Z,10.54
2024-03-26T20:20:33.588Z,10.57
2024-03-26T20:21:33.598Z,10.56
2024-03-26T20:22:35.808Z,10.56
2024-03-26T20:23:36.563Z,10.54
2024-03-26T20:24:33.550Z,10.54
2024-03-26T20:26:33.533Z,10.49
2024-03-26T20:27:33.523Z,10.49
2024-03-26T20:28:33.535Z,10.42
2024-03-26T20:29:35.449Z,10.40
2024-03-26T20:30:33.480Z,10.38
2024-03-26T20:31:37.957Z,10.35
2024-03-26T20:32:33.461Z,10.31
2024-03-26T20:33:33.454Z,10.31
2024-03-26T20:34:33.435Z,10.30
2024-03-26T20:35:33.426Z,10.28
2024-03-26T20:36:33.413Z,10.28
2024-03-26T20:37:33.401Z,10.25
2024-03-26T20:38:36.393Z,10.25
2024-03-26T20:39:33.453Z,10.23
2024-03-26T20:41:33.361Z,10.20
2024-03-26T20:42:33.355Z,10.19
2024-03-26T20:44:33.383Z,10.19
2024-03-26T20:45:33.323Z,10.15
2024-03-26T20:46:33.303Z,10.16
2024-03-26T20:47:33.312Z,10.16
2024-03-26T20:49:33.271Z,10.26
2024-03-26T20:50:33.266Z,10.34
2024-03-26T20:51:33.263Z,10.37
2024-03-26T20:52:33.254Z,10.41
2024-03-26T20:53:36.317Z,10.42
2024-03-26T20:54:33.224Z,10.42
2024-03-26T20:55:35.610Z,10.41
2024-03-26T20:56:33.205Z,10.41
2024-03-26T20:57:33.199Z,10.42
2024-03-26T20:58:33.202Z,10.40
2024-03-26T20:59:33.172Z,10.40
2024-03-26T21:00:33.165Z,10.38
2024-03-26T21:01:33.156Z,10.38
2024-03-26T21:02:33.148Z,10.40
2024-03-26T21:03:33.137Z,10.35
2024-03-26T21:04:33.159Z,10.37
2024-03-26T21:05:33.111Z,10.38
2024-03-26T21:06:33.159Z,10.41
2024-03-26T21:07:33.086Z,10.42
2024-03-26T21:08:36.104Z,10.44
2024-03-26T21:09:33.081Z,10.48
2024-03-26T21:10:33.077Z,10.48
2024-03-26T21:11:33.049Z,10.49
2024-03-26T21:12:33.034Z,10.51
2024-03-26T21:14:33.017Z,10.56
2024-03-26T21:15:33.059Z,10.53
2024-03-26T21:17:33.000Z,10.54
2024-03-26T21:18:33.040Z,10.54
2024-03-26T21:19:32.982Z,10.59
2024-03-26T21:20:32.964Z,10.61
2024-03-26T21:21:32.967Z,10.67
2024-03-26T21:23:35.932Z,10.71
2024-03-26T21:25:32.890Z,10.68
2024-03-26T21:26:32.881Z,10.63
2024-03-26T21:27:32.886Z,10.69
2024-03-26T21:28:32.861Z,10.71
2024-03-26T21:30:32.848Z,10.61
2024-03-26T21:32:35.396Z,10.49
2024-03-26T21:33:32.830Z,10.42
2024-03-26T21:34:32.830Z,10.40
2024-03-26T21:35:32.787Z,10.34
2024-03-26T21:36:32.780Z,10.31
2024-03-26T21:37:32.767Z,10.28
2024-03-26T21:38:35.758Z,10.25
2024-03-26T21:39:32.764Z,10.25
2024-03-26T21:40:32.733Z,10.19
2024-03-26T21:41:32.725Z,10.19
2024-03-26T21:42:32.713Z,10.26
2024-03-26T21:43:32.702Z,10.30
2024-03-26T21:44:32.698Z,10.31
2024-03-26T21:45:32.717Z,10.34
2024-03-26T21:46:32.674Z,10.35
2024-03-26T21:47:32.698Z,10.34
2024-03-26T21:48:32.645Z,10.33
2024-03-26T21:49:32.635Z,10.33
2024-03-26T21:50:32.627Z,10.31
2024-03-26T21:51:32.622Z,10.31
2024-03-26T21:52:32.612Z,10.33
2024-03-26T21:53:35.620Z,10.31
2024-03-26T21:54:32.600Z,10.30
2024-03-26T21:55:32.574Z,10.30
2024-03-26T21:56:32.588Z,10.31
2024-03-26T21:58:32.810Z,10.26
2024-03-26T22:00:32.518Z,10.38
2024-03-26T22:01:32.511Z,10.41
2024-03-26T22:03:32.521Z,10.48
2024-03-26T22:04:32.480Z,10.44
2024-03-26T22:06:32.459Z,10.42
2024-03-26T22:08:35.443Z,10.44
2024-03-26T22:09:32.458Z,10.42
2024-03-26T22:10:32.419Z,10.41
2024-03-26T22:11:32.413Z,10.34
2024-03-26T22:13:32.390Z,10.20
2024-03-26T22:14:34.878Z,10.16
2024-03-26T22:16:32.354Z,10.09
2024-03-26T22:17:32.384Z,10.05
2024-03-26T22:19:32.324Z,10.01
2024-03-26T22:20:32.314Z,9.98
2024-03-26T22:21:32.294Z,9.98
2024-03-26T22:22:32.287Z,9.97
2024-03-26T22:23:35.277Z,9.95
2024-03-26T22:24:32.277Z,9.94
2024-03-26T22:25:32.295Z,9.94
2024-03-26T22:26:32.259Z,9.94
2024-03-26T22:27:32.256Z,9.95
2024-03-26T22:28:32.364Z,9.94
2024-03-26T22:29:32.239Z,9.91
2024-03-26T22:30:32.204Z,9.89
2024-03-26T23:23:45.026Z,9.31
